Terminal Aerodrome Forecast
Issued by NWS

Home | Current Version | Previous Version | Text Only | Print | Product List | Glossary On
Versions: 1 2 3 4 5 6 7 8 9 10 11 12 13 14 15 16 17 18 19 20 21
000
FTUS41 KGYX 192327
TAFLEB
TAF
KLEB 192327Z 2000/2024 19004KT P6SM SKC
     FM200800 00000KT 1/2SM FG OVC001
     FM201300 19004KT P6SM SCT250
     FM201600 19008G15KT P6SM SCT100 BKN250=

USA.gov is the U.S. government's official web portal to all federal, state and local government web resources and services.